Current Weather

Agadez

Agadez, Niger (DRZA)

Report from: Tuesday, February 27, 2024 11:00 AM WAT
Current time: Tuesday, February 27, 2024 11:39 AM WAT

Nearby weather – Weather history – Daily summaries
Weather forecast

Temperature33.0°C (91.4°F)
Heat index30.6°C (87.1°F)
Dew point-7.0°C (19.4°F)
Winds 13 kts (6.7 m/s, 15 mph) East-Southeast (110°)
Clouds Sky clear
Altimeter29.97 in.Hg (1015 mB)
Relative humidity7 %
Density altitude2,059 ft. (628 m)
Remarks Ceiling and visibility OK
Flight conditions Visual Meteorological Conditions
Raw dataDRZA 271000Z 11013KT CAVOK 33/M07 Q1015
An error has occurred. This application may no longer respond until reloaded. Reload 🗙